sensor_id;sensor_type;location;lat;lon;timestamp;pressure;altitude;pressure_sealevel;temperature;humidity
62946;BME280;52164;52.212;-1.010;2022-08-03T00:01:43;100269.90;;;21.24;71.23
62946;BME280;52164;52.212;-1.010;2022-08-03T00:04:10;100272.55;;;21.21;71.15
62946;BME280;52164;52.212;-1.010;2022-08-03T00:06:36;100268.91;;;21.18;71.22
62946;BME280;52164;52.212;-1.010;2022-08-03T00:09:03;100269.13;;;21.14;71.38
62946;BME280;52164;52.212;-1.010;2022-08-03T00:11:29;100272.02;;;21.10;71.37
62946;BME280;52164;52.212;-1.010;2022-08-03T00:13:55;100269.73;;;21.08;71.54
62946;BME280;52164;52.212;-1.010;2022-08-03T00:16:20;100269.62;;;21.07;71.75
62946;BME280;52164;52.212;-1.010;2022-08-03T00:18:45;100276.05;;;21.09;71.79
62946;BME280;52164;52.212;-1.010;2022-08-03T00:21:11;100274.52;;;21.11;71.68
62946;BME280;52164;52.212;-1.010;2022-08-03T00:23:37;100272.42;;;21.13;71.78
62946;BME280;52164;52.212;-1.010;2022-08-03T00:26:03;100273.45;;;21.15;71.69
62946;BME280;52164;52.212;-1.010;2022-08-03T00:28:28;100273.15;;;21.17;71.71
62946;BME280;52164;52.212;-1.010;2022-08-03T00:30:54;100270.89;;;21.18;71.66
62946;BME280;52164;52.212;-1.010;2022-08-03T00:33:20;100276.10;;;21.19;71.63
62946;BME280;52164;52.212;-1.010;2022-08-03T00:35:46;100270.61;;;21.20;71.54
62946;BME280;52164;52.212;-1.010;2022-08-03T00:38:12;100267.63;;;21.22;71.49
62946;BME280;52164;52.212;-1.010;2022-08-03T00:40:38;100265.95;;;21.23;71.39
62946;BME280;52164;52.212;-1.010;2022-08-03T00:43:05;100256.11;;;21.24;71.36
62946;BME280;52164;52.212;-1.010;2022-08-03T00:45:34;100252.48;;;21.23;71.32
62946;BME280;52164;52.212;-1.010;2022-08-03T00:48:01;100253.23;;;21.23;71.30
62946;BME280;52164;52.212;-1.010;2022-08-03T00:50:29;100249.29;;;21.22;71.05
62946;BME280;52164;52.212;-1.010;2022-08-03T00:52:57;100250.30;;;21.20;70.87
62946;BME280;52164;52.212;-1.010;2022-08-03T00:55:23;100249.86;;;21.18;70.66
62946;BME280;52164;52.212;-1.010;2022-08-03T00:57:50;100245.28;;;21.15;70.54
62946;BME280;52164;52.212;-1.010;2022-08-03T01:00:18;100249.35;;;21.14;70.38
62946;BME280;52164;52.212;-1.010;2022-08-03T01:02:44;100245.91;;;21.10;70.20
62946;BME280;52164;52.212;-1.010;2022-08-03T01:05:10;100244.68;;;21.05;70.28
62946;BME280;52164;52.212;-1.010;2022-08-03T01:07:40;100236.34;;;21.01;70.26
62946;BME280;52164;52.212;-1.010;2022-08-03T01:10:19;100231.63;;;20.97;70.25
62946;BME280;52164;52.212;-1.010;2022-08-03T01:13:01;100225.70;;;20.92;70.02
62946;BME280;52164;52.212;-1.010;2022-08-03T01:15:57;100223.91;;;20.87;70.24
62946;BME280;52164;52.212;-1.010;2022-08-03T01:18:51;100224.42;;;20.81;70.24
62946;BME280;52164;52.212;-1.010;2022-08-03T01:21:17;100224.02;;;20.73;70.36
62946;BME280;52164;52.212;-1.010;2022-08-03T01:24:10;100220.86;;;20.68;70.27
62946;BME280;52164;52.212;-1.010;2022-08-03T01:26:52;100216.87;;;20.59;70.33
62946;BME280;52164;52.212;-1.010;2022-08-03T01:29:55;100217.94;;;20.51;70.34
62946;BME280;52164;52.212;-1.010;2022-08-03T01:32:29;100223.23;;;20.47;70.56
62946;BME280;52164;52.212;-1.010;2022-08-03T01:35:03;100226.70;;;20.42;70.46
62946;BME280;52164;52.212;-1.010;2022-08-03T01:37:36;100220.98;;;20.36;70.78
62946;BME280;52164;52.212;-1.010;2022-08-03T01:40:04;100221.41;;;20.35;70.87
62946;BME280;52164;52.212;-1.010;2022-08-03T01:42:31;100215.36;;;20.32;70.90
62946;BME280;52164;52.212;-1.010;2022-08-03T01:44:58;100216.91;;;20.30;70.78
62946;BME280;52164;52.212;-1.010;2022-08-03T01:47:26;100218.48;;;20.27;70.99
62946;BME280;52164;52.212;-1.010;2022-08-03T01:49:55;100222.71;;;20.26;71.01
62946;BME280;52164;52.212;-1.010;2022-08-03T01:52:23;100223.23;;;20.26;70.99
62946;BME280;52164;52.212;-1.010;2022-08-03T01:54:51;100224.02;;;20.24;71.06
62946;BME280;52164;52.212;-1.010;2022-08-03T01:57:18;100224.06;;;20.24;71.14
62946;BME280;52164;52.212;-1.010;2022-08-03T01:59:47;100218.71;;;20.22;71.13
62946;BME280;52164;52.212;-1.010;2022-08-03T02:02:15;100220.88;;;20.22;71.14
62946;BME280;52164;52.212;-1.010;2022-08-03T02:04:42;100220.19;;;20.21;71.00
62946;BME280;52164;52.212;-1.010;2022-08-03T02:07:11;100220.83;;;20.19;71.18
62946;BME280;52164;52.212;-1.010;2022-08-03T02:09:39;100219.98;;;20.18;71.15
62946;BME280;52164;52.212;-1.010;2022-08-03T02:12:08;100218.23;;;20.17;71.36
62946;BME280;52164;52.212;-1.010;2022-08-03T02:14:36;100221.98;;;20.18;71.47
62946;BME280;52164;52.212;-1.010;2022-08-03T02:17:02;100222.02;;;20.17;71.43
62946;BME280;52164;52.212;-1.010;2022-08-03T02:19:29;100218.15;;;20.18;71.51
62946;BME280;52164;52.212;-1.010;2022-08-03T02:21:57;100216.48;;;20.19;71.56
62946;BME280;52164;52.212;-1.010;2022-08-03T02:24:23;100215.30;;;20.21;71.60
62946;BME280;52164;52.212;-1.010;2022-08-03T02:26:50;100213.48;;;20.21;71.60
62946;BME280;52164;52.212;-1.010;2022-08-03T02:29:20;100217.41;;;20.19;71.65
62946;BME280;52164;52.212;-1.010;2022-08-03T02:31:49;100217.59;;;20.19;71.60
62946;BME280;52164;52.212;-1.010;2022-08-03T02:34:16;100215.32;;;20.17;71.67
62946;BME280;52164;52.212;-1.010;2022-08-03T02:36:46;100220.77;;;20.17;71.61
62946;BME280;52164;52.212;-1.010;2022-08-03T02:39:14;100229.02;;;20.18;71.68
62946;BME280;52164;52.212;-1.010;2022-08-03T02:41:45;100225.95;;;20.18;71.67
62946;BME280;52164;52.212;-1.010;2022-08-03T02:44:12;100229.64;;;20.21;71.59
62946;BME280;52164;52.212;-1.010;2022-08-03T02:46:42;100234.10;;;20.22;71.77
62946;BME280;52164;52.212;-1.010;2022-08-03T02:49:11;100230.05;;;20.24;71.50
62946;BME280;52164;52.212;-1.010;2022-08-03T02:51:38;100232.79;;;20.23;71.43
62946;BME280;52164;52.212;-1.010;2022-08-03T02:54:05;100231.20;;;20.22;71.57
62946;BME280;52164;52.212;-1.010;2022-08-03T02:56:33;100234.35;;;20.21;71.59
62946;BME280;52164;52.212;-1.010;2022-08-03T02:58:59;100231.42;;;20.21;71.61
62946;BME280;52164;52.212;-1.010;2022-08-03T03:01:27;100223.05;;;20.22;71.70
62946;BME280;52164;52.212;-1.010;2022-08-03T03:03:55;100220.86;;;20.22;71.67
62946;BME280;52164;52.212;-1.010;2022-08-03T03:06:24;100219.26;;;20.22;71.63
62946;BME280;52164;52.212;-1.010;2022-08-03T03:08:51;100217.04;;;20.19;71.52
62946;BME280;52164;52.212;-1.010;2022-08-03T03:11:20;100217.51;;;20.16;71.68
62946;BME280;52164;52.212;-1.010;2022-08-03T03:13:47;100219.29;;;20.14;71.62
62946;BME280;52164;52.212;-1.010;2022-08-03T03:16:14;100213.86;;;20.09;71.78
62946;BME280;52164;52.212;-1.010;2022-08-03T03:18:42;100214.52;;;20.06;71.92
62946;BME280;52164;52.212;-1.010;2022-08-03T03:21:09;100214.34;;;20.06;71.94
62946;BME280;52164;52.212;-1.010;2022-08-03T03:23:37;100218.77;;;20.04;71.90
62946;BME280;52164;52.212;-1.010;2022-08-03T03:26:05;100217.75;;;20.03;72.07
62946;BME280;52164;52.212;-1.010;2022-08-03T03:28:31;100219.92;;;20.03;72.04
62946;BME280;52164;52.212;-1.010;2022-08-03T03:30:57;100219.42;;;20.02;72.05
62946;BME280;52164;52.212;-1.010;2022-08-03T03:33:24;100215.78;;;20.02;72.15
62946;BME280;52164;52.212;-1.010;2022-08-03T03:35:50;100214.85;;;20.03;72.12
62946;BME280;52164;52.212;-1.010;2022-08-03T03:38:16;100216.87;;;20.02;72.17
62946;BME280;52164;52.212;-1.010;2022-08-03T03:40:42;100215.86;;;20.00;72.12
62946;BME280;52164;52.212;-1.010;2022-08-03T03:43:09;100213.77;;;19.99;72.02
62946;BME280;52164;52.212;-1.010;2022-08-03T03:45:35;100215.56;;;19.95;72.16
62946;BME280;52164;52.212;-1.010;2022-08-03T03:48:03;100211.80;;;19.94;72.29
62946;BME280;52164;52.212;-1.010;2022-08-03T03:50:30;100212.55;;;19.94;72.17
62946;BME280;52164;52.212;-1.010;2022-08-03T03:52:57;100217.30;;;19.93;72.19
62946;BME280;52164;52.212;-1.010;2022-08-03T03:55:23;100213.77;;;19.90;72.27
62946;BME280;52164;52.212;-1.010;2022-08-03T03:57:49;100214.80;;;19.87;72.32
62946;BME280;52164;52.212;-1.010;2022-08-03T04:00:16;100220.30;;;19.86;72.47
62946;BME280;52164;52.212;-1.010;2022-08-03T04:02:42;100217.71;;;19.83;72.59
62946;BME280;52164;52.212;-1.010;2022-08-03T04:05:08;100218.13;;;19.81;72.45
62946;BME280;52164;52.212;-1.010;2022-08-03T04:07:59;100217.83;;;19.80;72.55
62946;BME280;52164;52.212;-1.010;2022-08-03T04:10:53;100214.27;;;19.79;72.60
62946;BME280;52164;52.212;-1.010;2022-08-03T04:13:24;100217.94;;;19.77;72.66
62946;BME280;52164;52.212;-1.010;2022-08-03T04:15:53;100213.71;;;19.74;72.59
62946;BME280;52164;52.212;-1.010;2022-08-03T04:18:20;100211.05;;;19.73;72.76
62946;BME280;52164;52.212;-1.010;2022-08-03T04:20:47;100212.87;;;19.73;72.74
62946;BME280;52164;52.212;-1.010;2022-08-03T04:23:16;100212.89;;;19.72;72.77
62946;BME280;52164;52.212;-1.010;2022-08-03T04:25:44;100218.31;;;19.72;72.77
62946;BME280;52164;52.212;-1.010;2022-08-03T04:28:12;100212.59;;;19.71;72.72
62946;BME280;52164;52.212;-1.010;2022-08-03T04:30:39;100215.67;;;19.75;72.81
62946;BME280;52164;52.212;-1.010;2022-08-03T04:33:12;100221.92;;;19.77;72.82
62946;BME280;52164;52.212;-1.010;2022-08-03T04:35:39;100223.15;;;19.78;72.88
62946;BME280;52164;52.212;-1.010;2022-08-03T04:38:06;100223.99;;;19.80;72.82
62946;BME280;52164;52.212;-1.010;2022-08-03T04:40:33;100227.55;;;19.81;72.95
62946;BME280;52164;52.212;-1.010;2022-08-03T04:43:00;100226.38;;;19.83;72.89
62946;BME280;52164;52.212;-1.010;2022-08-03T04:45:27;100224.84;;;19.85;72.81
62946;BME280;52164;52.212;-1.010;2022-08-03T04:58:37;100226.46;;;20.56;71.77
62946;BME280;52164;52.212;-1.010;2022-08-03T05:01:03;100228.45;;;20.64;71.39
62946;BME280;52164;52.212;-1.010;2022-08-03T05:03:28;100233.24;;;20.58;71.25
62946;BME280;52164;52.212;-1.010;2022-08-03T05:05:55;100230.15;;;20.50;71.27
62946;BME280;52164;52.212;-1.010;2022-08-03T05:08:21;100232.31;;;20.46;71.20
62946;BME280;52164;52.212;-1.010;2022-08-03T05:10:47;100234.52;;;20.42;71.22
62946;BME280;52164;52.212;-1.010;2022-08-03T05:13:12;100237.94;;;20.38;71.27
62946;BME280;52164;52.212;-1.010;2022-08-03T05:15:39;100239.15;;;20.35;71.24
62946;BME280;52164;52.212;-1.010;2022-08-03T05:18:05;100245.03;;;20.34;71.23
62946;BME280;52164;52.212;-1.010;2022-08-03T05:20:30;100241.59;;;20.33;71.30
62946;BME280;52164;52.212;-1.010;2022-08-03T05:22:56;100242.23;;;20.31;71.13
62946;BME280;52164;52.212;-1.010;2022-08-03T05:25:23;100244.02;;;20.28;71.13
62946;BME280;52164;52.212;-1.010;2022-08-03T05:27:49;100244.24;;;20.27;71.37
62946;BME280;52164;52.212;-1.010;2022-08-03T05:30:15;100242.64;;;20.26;71.23
62946;BME280;52164;52.212;-1.010;2022-08-03T05:32:41;100245.96;;;20.25;71.06
62946;BME280;52164;52.212;-1.010;2022-08-03T05:35:06;100248.84;;;20.21;70.87
62946;BME280;52164;52.212;-1.010;2022-08-03T05:37:32;100242.10;;;20.17;71.02
62946;BME280;52164;52.212;-1.010;2022-08-03T05:39:57;100244.38;;;20.15;71.09
62946;BME280;52164;52.212;-1.010;2022-08-03T05:42:23;100249.98;;;20.16;71.13
62946;BME280;52164;52.212;-1.010;2022-08-03T05:44:48;100252.64;;;20.17;71.12
62946;BME280;52164;52.212;-1.010;2022-08-03T05:47:14;100257.96;;;20.20;70.95
62946;BME280;52164;52.212;-1.010;2022-08-03T05:49:39;100259.33;;;20.21;71.00
62946;BME280;52164;52.212;-1.010;2022-08-03T05:52:05;100259.22;;;20.23;70.96
62946;BME280;52164;52.212;-1.010;2022-08-03T05:54:30;100258.38;;;20.27;70.77
62946;BME280;52164;52.212;-1.010;2022-08-03T05:56:56;100253.39;;;20.29;70.72
62946;BME280;52164;52.212;-1.010;2022-08-03T05:59:21;100252.88;;;20.32;70.83
62946;BME280;52164;52.212;-1.010;2022-08-03T06:01:47;100257.27;;;20.35;70.81
62946;BME280;52164;52.212;-1.010;2022-08-03T06:04:13;100259.21;;;20.40;70.74
62946;BME280;52164;52.212;-1.010;2022-08-03T06:06:38;100260.48;;;20.40;70.52
62946;BME280;52164;52.212;-1.010;2022-08-03T06:09:03;100259.85;;;20.38;70.49
62946;BME280;52164;52.212;-1.010;2022-08-03T06:11:29;100257.66;;;20.35;70.57
62946;BME280;52164;52.212;-1.010;2022-08-03T06:13:55;100258.86;;;20.32;70.50
62946;BME280;52164;52.212;-1.010;2022-08-03T06:16:20;100260.14;;;20.28;70.51
62946;BME280;52164;52.212;-1.010;2022-08-03T06:18:46;100258.77;;;20.27;70.59
62946;BME280;52164;52.212;-1.010;2022-08-03T06:21:11;100261.07;;;20.27;70.67
62946;BME280;52164;52.212;-1.010;2022-08-03T06:23:37;100261.58;;;20.28;70.79
62946;BME280;52164;52.212;-1.010;2022-08-03T06:26:03;100258.91;;;20.31;70.73
62946;BME280;52164;52.212;-1.010;2022-08-03T06:28:29;100259.04;;;20.32;70.81
62946;BME280;52164;52.212;-1.010;2022-08-03T06:30:54;100264.61;;;20.33;70.76
62946;BME280;52164;52.212;-1.010;2022-08-03T06:33:20;100262.08;;;20.37;70.84
62946;BME280;52164;52.212;-1.010;2022-08-03T06:35:45;100260.96;;;20.46;70.78
62946;BME280;52164;52.212;-1.010;2022-08-03T06:38:11;100264.08;;;20.53;70.62
62946;BME280;52164;52.212;-1.010;2022-08-03T06:40:37;100261.91;;;20.57;70.46
62946;BME280;52164;52.212;-1.010;2022-08-03T06:43:06;100259.67;;;20.58;70.42
62946;BME280;52164;52.212;-1.010;2022-08-03T06:45:33;100255.16;;;20.58;70.32
62946;BME280;52164;52.212;-1.010;2022-08-03T06:48:04;100259.49;;;20.58;70.24
62946;BME280;52164;52.212;-1.010;2022-08-03T06:50:30;100255.66;;;20.59;70.31
62946;BME280;52164;52.212;-1.010;2022-08-03T06:52:55;100255.18;;;20.62;70.28
62946;BME280;52164;52.212;-1.010;2022-08-03T06:55:22;100252.45;;;20.66;70.29
62946;BME280;52164;52.212;-1.010;2022-08-03T06:57:47;100250.57;;;20.68;70.27
62946;BME280;52164;52.212;-1.010;2022-08-03T07:00:13;100252.59;;;20.71;70.28
62946;BME280;52164;52.212;-1.010;2022-08-03T07:02:39;100261.19;;;20.78;70.13
62946;BME280;52164;52.212;-1.010;2022-08-03T07:05:06;100258.44;;;20.78;70.04
62946;BME280;52164;52.212;-1.010;2022-08-03T07:07:31;100262.45;;;20.78;70.04
62946;BME280;52164;52.212;-1.010;2022-08-03T07:09:57;100260.24;;;20.82;69.87
62946;BME280;52164;52.212;-1.010;2022-08-03T07:12:23;100254.71;;;20.88;69.92
62946;BME280;52164;52.212;-1.010;2022-08-03T07:14:48;100250.98;;;20.90;69.96
62946;BME280;52164;52.212;-1.010;2022-08-03T07:17:14;100249.89;;;20.95;70.02
62946;BME280;52164;52.212;-1.010;2022-08-03T07:19:40;100252.31;;;20.93;69.64
62946;BME280;52164;52.212;-1.010;2022-08-03T07:22:05;100252.13;;;20.89;69.36
62946;BME280;52164;52.212;-1.010;2022-08-03T07:24:33;100252.46;;;20.86;69.47
62946;BME280;52164;52.212;-1.010;2022-08-03T07:26:58;100250.70;;;20.85;69.41
62946;BME280;52164;52.212;-1.010;2022-08-03T07:29:24;100255.38;;;20.93;69.50
62946;BME280;52164;52.212;-1.010;2022-08-03T07:31:49;100252.84;;;21.09;69.20
62946;BME280;52164;52.212;-1.010;2022-08-03T07:34:15;100254.21;;;21.25;68.92
62946;BME280;52164;52.212;-1.010;2022-08-03T07:36:40;100251.66;;;21.52;68.64
62946;BME280;52164;52.212;-1.010;2022-08-03T07:39:06;100259.90;;;21.77;68.38
62946;BME280;52164;52.212;-1.010;2022-08-03T07:41:32;100259.30;;;21.92;67.73
62946;BME280;52164;52.212;-1.010;2022-08-03T07:43:57;100257.85;;;22.03;67.36
62946;BME280;52164;52.212;-1.010;2022-08-03T07:46:23;100263.32;;;22.16;67.12
62946;BME280;52164;52.212;-1.010;2022-08-03T07:48:48;100255.67;;;22.31;66.71
62946;BME280;52164;52.212;-1.010;2022-08-03T07:51:14;100260.02;;;22.49;66.51
62946;BME280;52164;52.212;-1.010;2022-08-03T07:53:39;100261.58;;;22.57;66.06
62946;BME280;52164;52.212;-1.010;2022-08-03T07:56:05;100259.21;;;22.60;65.69
62946;BME280;52164;52.212;-1.010;2022-08-03T07:58:30;100267.04;;;22.64;65.64
62946;BME280;52164;52.212;-1.010;2022-08-03T08:00:56;100269.61;;;22.66;65.82
62946;BME280;52164;52.212;-1.010;2022-08-03T08:03:22;100263.04;;;22.74;65.34
62946;BME280;52164;52.212;-1.010;2022-08-03T08:05:48;100266.38;;;22.82;65.24
62946;BME280;52164;52.212;-1.010;2022-08-03T08:08:13;100265.02;;;22.91;64.96
62946;BME280;52164;52.212;-1.010;2022-08-03T08:10:39;100266.73;;;22.93;64.39
62946;BME280;52164;52.212;-1.010;2022-08-03T08:13:04;100267.52;;;22.92;64.47
62946;BME280;52164;52.212;-1.010;2022-08-03T08:15:30;100266.06;;;22.92;64.30
62946;BME280;52164;52.212;-1.010;2022-08-03T08:17:59;100262.68;;;22.87;64.30
62946;BME280;52164;52.212;-1.010;2022-08-03T08:20:30;100265.82;;;22.89;64.47
62946;BME280;52164;52.212;-1.010;2022-08-03T08:22:58;100263.20;;;22.97;64.25
62946;BME280;52164;52.212;-1.010;2022-08-03T08:25:24;100277.30;;;23.06;63.94
62946;BME280;52164;52.212;-1.010;2022-08-03T08:27:50;100264.85;;;23.07;63.75
62946;BME280;52164;52.212;-1.010;2022-08-03T08:30:19;100268.58;;;23.12;63.83
62946;BME280;52164;52.212;-1.010;2022-08-03T08:32:44;100267.75;;;23.18;63.75
62946;BME280;52164;52.212;-1.010;2022-08-03T08:35:10;100265.19;;;23.21;63.63
62946;BME280;52164;52.212;-1.010;2022-08-03T08:37:37;100267.28;;;23.23;63.53
62946;BME280;52164;52.212;-1.010;2022-08-03T08:40:04;100271.65;;;23.26;63.42
62946;BME280;52164;52.212;-1.010;2022-08-03T08:42:31;100266.77;;;23.25;63.32
62946;BME280;52164;52.212;-1.010;2022-08-03T08:44:57;100263.62;;;23.23;63.22
62946;BME280;52164;52.212;-1.010;2022-08-03T08:47:24;100267.43;;;23.20;63.09
62946;BME280;52164;52.212;-1.010;2022-08-03T08:49:52;100270.63;;;23.15;63.37
62946;BME280;52164;52.212;-1.010;2022-08-03T08:52:24;100269.79;;;23.10;63.35
62946;BME280;52164;52.212;-1.010;2022-08-03T08:54:51;100270.15;;;23.07;63.51
62946;BME280;52164;52.212;-1.010;2022-08-03T08:57:19;100265.63;;;23.10;63.63
62946;BME280;52164;52.212;-1.010;2022-08-03T08:59:46;100271.17;;;23.12;63.47
62946;BME280;52164;52.212;-1.010;2022-08-03T09:02:12;100269.69;;;23.12;63.28
62946;BME280;52164;52.212;-1.010;2022-08-03T09:04:38;100272.94;;;23.13;63.31
62946;BME280;52164;52.212;-1.010;2022-08-03T09:07:04;100269.79;;;23.11;63.39
62946;BME280;52164;52.212;-1.010;2022-08-03T09:09:30;100271.64;;;23.13;63.19
62946;BME280;52164;52.212;-1.010;2022-08-03T09:11:56;100273.05;;;23.17;63.13
62946;BME280;52164;52.212;-1.010;2022-08-03T09:14:21;100276.38;;;23.16;63.45
62946;BME280;52164;52.212;-1.010;2022-08-03T09:16:56;100279.13;;;23.16;63.97
62946;BME280;52164;52.212;-1.010;2022-08-03T09:19:27;100281.05;;;23.20;64.33
62946;BME280;52164;52.212;-1.010;2022-08-03T09:22:14;100273.34;;;23.25;64.20
62946;BME280;52164;52.212;-1.010;2022-08-03T09:24:58;100271.58;;;23.40;64.12
62946;BME280;52164;52.212;-1.010;2022-08-03T09:27:24;100271.01;;;23.63;63.73
62946;BME280;52164;52.212;-1.010;2022-08-03T09:29:51;100272.34;;;24.00;63.10
62946;BME280;52164;52.212;-1.010;2022-08-03T09:32:19;100264.20;;;24.29;62.15
62946;BME280;52164;52.212;-1.010;2022-08-03T09:34:48;100267.53;;;24.46;61.51
62946;BME280;52164;52.212;-1.010;2022-08-03T09:37:16;100275.15;;;24.34;61.22
62946;BME280;52164;52.212;-1.010;2022-08-03T09:39:42;100279.45;;;24.24;61.17
62946;BME280;52164;52.212;-1.010;2022-08-03T09:42:13;100275.84;;;24.23;60.75
62946;BME280;52164;52.212;-1.010;2022-08-03T09:44:43;100279.30;;;24.26;60.71
62946;BME280;52164;52.212;-1.010;2022-08-03T09:47:10;100271.02;;;24.31;60.48
62946;BME280;52164;52.212;-1.010;2022-08-03T09:49:37;100270.81;;;24.37;60.62
62946;BME280;52164;52.212;-1.010;2022-08-03T09:52:13;100265.85;;;24.49;60.47
62946;BME280;52164;52.212;-1.010;2022-08-03T09:54:40;100267.13;;;24.71;60.24
62946;BME280;52164;52.212;-1.010;2022-08-03T09:57:06;100261.45;;;24.91;59.77
62946;BME280;52164;52.212;-1.010;2022-08-03T09:59:32;100259.73;;;25.00;59.64
62946;BME280;52164;52.212;-1.010;2022-08-03T10:01:58;100256.74;;;25.33;59.04
62946;BME280;52164;52.212;-1.010;2022-08-03T10:04:25;100257.34;;;25.43;58.68
62946;BME280;52164;52.212;-1.010;2022-08-03T10:07:08;100251.38;;;25.56;58.02
62946;BME280;52164;52.212;-1.010;2022-08-03T10:09:35;100259.13;;;25.59;57.78
62946;BME280;52164;52.212;-1.010;2022-08-03T10:12:09;100253.14;;;25.68;57.34
62946;BME280;52164;52.212;-1.010;2022-08-03T10:14:37;100257.15;;;25.74;56.93
62946;BME280;52164;52.212;-1.010;2022-08-03T10:17:03;100254.86;;;25.81;56.09
62946;BME280;52164;52.212;-1.010;2022-08-03T10:19:29;100250.10;;;25.92;56.37
62946;BME280;52164;52.212;-1.010;2022-08-03T10:21:57;100256.54;;;25.97;55.76
62946;BME280;52164;52.212;-1.010;2022-08-03T10:24:27;100258.71;;;26.00;54.85
62946;BME280;52164;52.212;-1.010;2022-08-03T10:27:04;100258.71;;;25.92;54.51
62946;BME280;52164;52.212;-1.010;2022-08-03T10:29:37;100262.06;;;25.91;54.48
62946;BME280;52164;52.212;-1.010;2022-08-03T10:32:05;100259.35;;;25.77;53.73
62946;BME280;52164;52.212;-1.010;2022-08-03T10:34:33;100246.48;;;25.64;54.43
62946;BME280;52164;52.212;-1.010;2022-08-03T10:37:04;100250.77;;;25.60;54.86
62946;BME280;52164;52.212;-1.010;2022-08-03T10:39:31;100245.69;;;25.65;54.52
62946;BME280;52164;52.212;-1.010;2022-08-03T10:41:57;100244.02;;;25.79;54.03
62946;BME280;52164;52.212;-1.010;2022-08-03T10:44:24;100234.48;;;25.85;53.90
62946;BME280;52164;52.212;-1.010;2022-08-03T10:46:54;100240.74;;;25.87;53.80
62946;BME280;52164;52.212;-1.010;2022-08-03T10:49:21;100246.45;;;25.87;53.53
62946;BME280;52164;52.212;-1.010;2022-08-03T10:51:47;100249.25;;;25.82;53.64
62946;BME280;52164;52.212;-1.010;2022-08-03T10:56:59;100245.84;;;25.85;53.21
62946;BME280;52164;52.212;-1.010;2022-08-03T11:02:14;100237.62;;;25.66;53.47
62946;BME280;52164;52.212;-1.010;2022-08-03T11:04:40;100236.61;;;25.61;53.69
62946;BME280;52164;52.212;-1.010;2022-08-03T11:07:23;100235.73;;;25.58;53.60
62946;BME280;52164;52.212;-1.010;2022-08-03T11:09:51;100240.44;;;25.45;53.72
62946;BME280;52164;52.212;-1.010;2022-08-03T11:12:24;100244.83;;;25.28;53.82
62946;BME280;52164;52.212;-1.010;2022-08-03T11:14:50;100245.35;;;25.20;54.02
62946;BME280;52164;52.212;-1.010;2022-08-03T11:17:17;100239.66;;;25.26;54.37
62946;BME280;52164;52.212;-1.010;2022-08-03T11:19:46;100246.42;;;25.26;54.21
62946;BME280;52164;52.212;-1.010;2022-08-03T11:22:12;100246.77;;;25.21;54.29
62946;BME280;52164;52.212;-1.010;2022-08-03T11:24:55;100249.30;;;25.18;54.82
62946;BME280;52164;52.212;-1.010;2022-08-03T11:27:30;100253.46;;;25.27;54.88
62946;BME280;52164;52.212;-1.010;2022-08-03T11:30:22;100258.08;;;25.32;55.69
62946;BME280;52164;52.212;-1.010;2022-08-03T11:32:56;100263.00;;;25.33;56.04
62946;BME280;52164;52.212;-1.010;2022-08-03T11:40:53;100282.52;;;25.12;58.53
62946;BME280;52164;52.212;-1.010;2022-08-03T11:46:04;100290.66;;;24.97;59.76
62946;BME280;52164;52.212;-1.010;2022-08-03T11:48:36;100290.88;;;24.90;60.30
62946;BME280;52164;52.212;-1.010;2022-08-03T11:51:06;100293.98;;;24.93;60.34
62946;BME280;52164;52.212;-1.010;2022-08-03T11:53:33;100296.06;;;25.04;60.20
62946;BME280;52164;52.212;-1.010;2022-08-03T11:56:00;100293.73;;;25.23;60.20
62946;BME280;52164;52.212;-1.010;2022-08-03T11:58:27;100294.46;;;25.46;60.14
62946;BME280;52164;52.212;-1.010;2022-08-03T12:01:03;100295.26;;;25.64;59.67
62946;BME280;52164;52.212;-1.010;2022-08-03T12:03:32;100291.38;;;25.82;59.55
62946;BME280;52164;52.212;-1.010;2022-08-03T12:05:58;100287.83;;;26.15;58.44
62946;BME280;52164;52.212;-1.010;2022-08-03T12:10:53;100293.14;;;26.50;57.47
62946;BME280;52164;52.212;-1.010;2022-08-03T12:13:20;100281.12;;;26.51;57.35
62946;BME280;52164;52.212;-1.010;2022-08-03T12:15:51;100286.23;;;26.47;56.92
62946;BME280;52164;52.212;-1.010;2022-08-03T12:18:19;100287.45;;;26.26;57.38
62946;BME280;52164;52.212;-1.010;2022-08-03T12:20:46;100289.20;;;25.98;58.24
62946;BME280;52164;52.212;-1.010;2022-08-03T12:23:12;100299.30;;;25.67;59.42
62946;BME280;52164;52.212;-1.010;2022-08-03T12:25:39;100300.79;;;25.35;60.86
62946;BME280;52164;52.212;-1.010;2022-08-03T12:28:21;100301.48;;;25.16;61.34
62946;BME280;52164;52.212;-1.010;2022-08-03T12:30:50;100307.81;;;24.97;61.92
62946;BME280;52164;52.212;-1.010;2022-08-03T12:33:22;100307.06;;;24.86;62.59
62946;BME280;52164;52.212;-1.010;2022-08-03T12:36:01;100309.73;;;24.78;63.04
62946;BME280;52164;52.212;-1.010;2022-08-03T12:38:29;100307.73;;;24.69;62.93
62946;BME280;52164;52.212;-1.010;2022-08-03T12:41:00;100305.54;;;24.78;63.27
62946;BME280;52164;52.212;-1.010;2022-08-03T12:43:25;100300.45;;;24.92;62.89
62946;BME280;52164;52.212;-1.010;2022-08-03T12:45:51;100292.46;;;25.26;62.45
62946;BME280;52164;52.212;-1.010;2022-08-03T12:48:30;100292.08;;;25.52;61.94
62946;BME280;52164;52.212;-1.010;2022-08-03T12:51:08;100293.66;;;25.75;61.54
62946;BME280;52164;52.212;-1.010;2022-08-03T12:53:35;100289.64;;;25.91;60.93
62946;BME280;52164;52.212;-1.010;2022-08-03T12:56:02;100291.11;;;26.05;60.85
62946;BME280;52164;52.212;-1.010;2022-08-03T12:58:30;100289.29;;;26.34;60.51
62946;BME280;52164;52.212;-1.010;2022-08-03T13:00:57;100285.57;;;26.59;59.02
62946;BME280;52164;52.212;-1.010;2022-08-03T13:03:23;100281.91;;;26.74;58.95
62946;BME280;52164;52.212;-1.010;2022-08-03T13:05:49;100277.96;;;27.07;57.43
62946;BME280;52164;52.212;-1.010;2022-08-03T13:08:19;100274.73;;;27.34;56.27
62946;BME280;52164;52.212;-1.010;2022-08-03T13:10:45;100280.14;;;27.52;56.08
62946;BME280;52164;52.212;-1.010;2022-08-03T13:13:10;100276.84;;;27.77;55.37